Time;durP1;ratioP1;P1;durP2;ratioP2;P2;SDS_P1;SDS_P2;PMS_P1;PMS_P2;Temp;Humidity;BMP_temperature;BMP_pressure;BME280_temperature;BME280_humidity;BME280_pressure;Samples;Min_cycle;Max_cycle;Signal;HPM_P1;HPM_P2
2023/04/07 00:02:16;;;;;;;8.20;7.60;;;;;;;7.56;100.00;147947.03;5093098;28;20204;-62
2023/04/07 00:04:43;;;;;;;8.67;7.87;;;;;;;7.65;100.00;147969.75;5092825;28;20191;-61
2023/04/07 00:07:11;;;;;;;8.43;7.93;;;;;;;7.77;100.00;148000.00;5093026;28;20592;-62
2023/04/07 00:09:38;;;;;;;8.60;8.10;;;;;;;7.80;100.00;148007.59;5092720;28;20279;-61
2023/04/07 00:12:05;;;;;;;11.07;8.17;;;;;;;7.79;100.00;148005.06;5092415;28;20226;-61
2023/04/07 00:14:32;;;;;;;8.60;8.10;;;;;;;7.72;100.00;147987.38;5092618;28;20188;-62
2023/04/07 00:16:59;;;;;;;9.03;8.27;;;;;;;7.85;100.00;148018.91;5092771;28;20184;-63
2023/04/07 00:19:26;;;;;;;9.10;8.50;;;;;;;7.72;100.00;147986.16;5092506;28;20184;-62
2023/04/07 00:21:53;;;;;;;9.40;8.70;;;;;;;7.65;100.00;147969.75;5092727;28;20674;-62
2023/04/07 00:24:21;;;;;;;9.03;8.20;;;;;;;7.78;100.00;148002.53;5092626;28;20184;-63
2023/04/07 00:26:48;;;;;;;9.63;8.87;;;;;;;7.72;100.00;147987.38;5092587;28;20662;-62
2023/04/07 00:29:15;;;;;;;10.50;8.80;;;;;;;7.79;100.00;148003.81;5092465;28;20192;-62
2023/04/07 00:31:42;;;;;;;12.20;8.83;;;;;;;7.80;100.00;148007.59;5092572;28;20555;-61
2023/04/07 00:34:09;;;;;;;10.20;9.17;;;;;;;7.68;100.00;147976.09;5092402;28;20191;-61
2023/04/07 00:36:35;;;;;;;22.13;10.03;;;;;;;7.56;100.00;147945.78;5092236;28;20184;-61
2023/04/07 00:39:02;;;;;;;17.03;9.70;;;;;;;7.49;100.00;147929.41;5092569;28;20199;-62
2023/04/07 00:41:30;;;;;;;23.53;9.47;;;;;;;7.29;100.00;147879.00;5091966;28;20208;-61
2023/04/07 00:43:57;;;;;;;10.37;9.40;;;;;;;7.30;100.00;147881.47;5092297;28;20210;-62
2023/04/07 00:46:24;;;;;;;9.87;9.10;;;;;;;7.17;100.00;147848.75;5092021;28;20188;-62
2023/04/07 00:48:51;;;;;;;11.40;10.27;;;;;;;7.29;100.00;147879.00;5091997;28;20220;-62
2023/04/07 00:51:21;;;;;;;10.27;9.27;;;;;;;7.24;100.00;147866.38;5091908;28;20184;-61
2023/04/07 00:53:48;;;;;;;11.67;10.47;;;;;;;7.06;100.00;147820.97;5091759;28;20199;-61
2023/04/07 00:56:15;;;;;;;10.33;9.43;;;;;;;7.21;100.00;147858.81;5092298;28;20594;-61
2023/04/07 00:58:43;;;;;;;10.03;9.27;;;;;;;7.27;100.00;147875.19;5092119;28;20188;-61
2023/04/07 01:01:21;;;;;;;10.43;9.70;;;;;;;7.26;100.00;147871.41;5092120;28;20211;-61
2023/04/07 01:03:57;;;;;;;10.90;9.90;;;;;;;7.37;100.00;147897.88;5092024;28;20209;-62
2023/04/07 01:06:29;;;;;;;11.40;10.03;;;;;;;7.38;100.00;147901.69;5091649;28;20187;-63
2023/04/07 01:09:02;;;;;;;11.57;10.33;;;;;;;7.39;100.00;147904.19;5091675;28;20269;-62
2023/04/07 01:11:35;;;;;;;10.83;9.70;;;;;;;7.28;100.00;147876.44;5091474;28;20231;-62
2023/04/07 01:14:04;;;;;;;10.47;9.43;;;;;;;7.32;100.00;147887.81;5091925;28;20554;-63
2023/04/07 01:16:36;;;;;;;10.77;10.00;;;;;;;7.51;100.00;147934.44;5091881;28;20195;-61
2023/04/07 01:19:09;;;;;;;10.10;9.23;;;;;;;7.48;100.00;147926.88;5092154;28;20203;-62
2023/04/07 01:21:37;;;;;;;10.27;9.00;;;;;;;7.53;100.00;147938.22;5091400;28;20207;-63
2023/04/07 01:24:23;;;;;;;10.17;9.47;;;;;;;7.43;100.00;147914.25;5091833;28;20188;-62
2023/04/07 01:26:51;;;;;;;10.03;9.03;;;;;;;7.58;100.00;147950.84;5091744;28;20202;-62
2023/04/07 01:29:34;;;;;;;10.83;9.33;;;;;;;7.50;100.00;147930.69;5091757;28;20184;-61
2023/04/07 01:32:03;;;;;;;10.77;9.63;;;;;;;7.64;100.00;147967.22;5091711;28;20184;-61
2023/04/07 01:34:32;;;;;;;9.93;8.87;;;;;;;7.62;100.00;147962.19;5091760;28;20188;-61
2023/04/07 01:37:02;;;;;;;11.00;9.20;;;;;;;7.61;100.00;147959.66;5091610;28;20190;-62
2023/04/07 01:39:30;;;;;;;9.87;9.07;;;;;;;7.59;100.00;147954.66;5091338;28;20199;-62
2023/04/07 01:42:01;;;;;;;13.90;10.30;;;;;;;7.35;100.00;147894.09;5091297;28;20212;-62
2023/04/07 01:44:30;;;;;;;11.60;10.47;;;;;;;7.30;100.00;147882.75;5091664;28;20193;-62
2023/04/07 01:46:57;;;;;;;11.67;10.30;;;;;;;7.60;100.00;147957.13;5091297;28;20218;-62
2023/04/07 01:49:26;;;;;;;12.07;10.57;;;;;;;7.68;100.00;147976.09;5091645;28;20195;-62
2023/04/07 01:51:53;;;;;;;13.00;10.57;;;;;;;7.51;100.00;147933.22;5091381;28;20188;-62
2023/04/07 01:54:21;;;;;;;10.20;9.53;;;;;;;7.64;100.00;147965.94;5091322;28;20188;-61
2023/04/07 01:56:48;;;;;;;12.87;10.23;;;;;;;7.67;100.00;147974.81;5091599;28;20195;-61
2023/04/07 01:59:15;;;;;;;9.93;9.13;;;;;;;7.66;100.00;147971.00;5091321;28;20252;-62
2023/04/07 02:01:43;;;;;;;11.33;10.30;;;;;;;7.73;100.00;147989.91;5091506;28;20211;-62
2023/04/07 02:04:16;;;;;;;10.90;9.97;;;;;;;7.44;100.00;147916.78;5091115;28;20180;-61
2023/04/07 02:06:49;;;;;;;11.30;10.30;;;;;;;7.57;100.00;147948.31;5091501;28;20185;-61
2023/04/07 02:09:16;;;;;;;9.93;9.27;;;;;;;7.64;100.00;147967.22;5091463;28;20184;-60
2023/04/07 02:11:45;;;;;;;9.67;8.67;;;;;;;7.67;100.00;147973.56;5090875;28;20253;-63
2023/04/07 02:14:14;;;;;;;9.83;8.80;;;;;;;7.75;100.00;147995.00;5091291;28;20184;-61
2023/04/07 02:16:43;;;;;;;9.30;8.50;;;;;;;7.60;100.00;147957.13;5091373;28;20557;-61
2023/04/07 02:19:10;;;;;;;11.43;8.83;;;;;;;7.73;100.00;147988.66;5094803;28;20206;-63
2023/04/07 02:21:39;;;;;;;8.93;8.13;;;;;;;7.70;100.00;147982.38;5094919;28;20231;-62
2023/04/07 02:24:07;;;;;;;8.87;8.30;;;;;;;7.63;100.00;147964.72;5094915;28;20185;-61
2023/04/07 02:26:34;;;;;;;10.23;8.17;;;;;;;7.64;100.00;147967.22;5094593;28;20180;-62
2023/04/07 02:29:01;;;;;;;8.70;7.77;;;;;;;7.62;100.00;147962.19;5094671;28;20184;-61
2023/04/07 02:31:28;;;;;;;9.40;8.70;;;;;;;7.60;100.00;147957.13;5094783;28;20203;-62
2023/04/07 02:33:57;;;;;;;11.13;9.00;;;;;;;7.60;100.00;147955.88;5094476;28;20270;-63
2023/04/07 02:36:25;;;;;;;9.43;8.60;;;;;;;7.76;100.00;147997.53;5094791;28;20213;-61
2023/04/07 02:38:52;;;;;;;10.07;9.37;;;;;;;7.74;100.00;147992.44;5094882;28;20184;-61
2023/04/07 02:41:18;;;;;;;9.43;8.73;;;;;;;7.61;100.00;147959.66;5094540;28;20204;-62
2023/04/07 02:43:45;;;;;;;15.50;8.87;;;;;;;7.68;100.00;147976.09;5094370;28;20193;-61
2023/04/07 02:46:12;;;;;;;9.07;8.40;;;;;;;7.59;100.00;147954.66;5094353;28;20184;-62
2023/04/07 02:48:39;;;;;;;8.93;8.33;;;;;;;7.68;100.00;147977.31;5094490;28;20188;-61
2023/04/07 02:51:07;;;;;;;8.20;7.57;;;;;;;7.34;100.00;147891.59;5094427;28;20573;-62
2023/04/07 02:53:34;;;;;;;8.37;7.60;;;;;;;7.43;100.00;147914.25;5094399;28;20190;-61
2023/04/07 02:56:01;;;;;;;8.97;8.17;;;;;;;7.44;100.00;147915.53;5094161;28;20264;-61
2023/04/07 02:58:28;;;;;;;8.47;7.97;;;;;;;7.13;100.00;147838.66;5094541;28;20657;-63
2023/04/07 03:00:54;;;;;;;8.90;8.37;;;;;;;7.17;100.00;147848.75;5093961;28;20184;-62
2023/04/07 03:03:21;;;;;;;9.30;8.70;;;;;;;7.24;100.00;147866.38;5094533;28;20601;-60
2023/04/07 03:05:48;;;;;;;8.47;7.63;;;;;;;7.30;100.00;147882.75;5093849;28;20192;-62
2023/04/07 03:08:16;;;;;;;8.90;8.27;;;;;;;7.30;100.00;147882.75;5093807;28;20188;-62
2023/04/07 03:10:43;;;;;;;8.83;8.03;;;;;;;7.47;100.00;147924.34;5093923;28;20578;-62
2023/04/07 03:13:11;;;;;;;9.20;8.60;;;;;;;7.39;100.00;147902.91;5093890;28;20211;-62
2023/04/07 03:15:38;;;;;;;8.97;8.33;;;;;;;7.29;100.00;147880.25;5093669;28;20223;-61
2023/04/07 03:18:05;;;;;;;8.60;8.10;;;;;;;7.35;100.00;147894.09;5094128;28;20244;-61
2023/04/07 03:20:32;;;;;;;9.20;8.60;;;;;;;7.28;100.00;147877.72;5093667;28;20192;-61
2023/04/07 03:22:59;;;;;;;9.20;8.67;;;;;;;7.34;100.00;147892.81;5093361;28;20204;-62
2023/04/07 03:25:27;;;;;;;9.80;9.03;;;;;;;7.42;100.00;147910.50;5093494;28;20184;-62
2023/04/07 03:27:54;;;;;;;10.40;9.73;;;;;;;7.45;100.00;147919.31;5093249;28;20194;-61
2023/04/07 03:30:21;;;;;;;9.77;9.17;;;;;;;7.48;100.00;147926.88;5093302;28;20195;-61
2023/04/07 03:32:48;;;;;;;8.93;8.43;;;;;;;7.43;100.00;147914.25;5093356;28;20242;-63
2023/04/07 03:35:15;;;;;;;17.23;9.87;;;;;;;7.43;100.00;147913.00;5093785;28;20555;-61
2023/04/07 03:37:42;;;;;;;10.20;9.20;;;;;;;7.41;100.00;147907.97;5093339;28;20195;-62
2023/04/07 03:40:09;;;;;;;9.27;8.67;;;;;;;7.38;100.00;147901.69;5093156;28;20191;-62
2023/04/07 03:42:38;;;;;;;10.43;9.33;;;;;;;7.50;100.00;147930.69;5093478;28;20223;-62
2023/04/07 03:45:06;;;;;;;9.60;8.87;;;;;;;7.54;100.00;147942.03;5093426;28;20188;-62
2023/04/07 03:47:32;;;;;;;8.77;8.13;;;;;;;7.52;100.00;147935.69;5093358;28;20653;-61
2023/04/07 03:50:00;;;;;;;10.23;9.43;;;;;;;7.63;100.00;147964.72;5093104;28;20262;-61
2023/04/07 03:52:26;;;;;;;12.13;9.40;;;;;;;7.46;100.00;147921.84;5093576;28;20270;-62
2023/04/07 03:54:53;;;;;;;10.03;9.37;;;;;;;7.56;100.00;147945.78;5093005;28;20189;-61
2023/04/07 03:57:20;;;;;;;10.03;9.00;;;;;;;7.75;100.00;147993.72;5092961;28;20184;-61
2023/04/07 03:59:50;;;;;;;10.50;9.67;;;;;;;7.80;100.00;148007.59;5092860;28;20185;-62
2023/04/07 04:02:17;;;;;;;14.17;10.67;;;;;;;7.69;100.00;147979.84;5093037;28;20200;-61
2023/04/07 04:04:43;;;;;;;11.50;10.40;;;;;;;8.00;100.00;148056.78;5093216;28;20180;-61
2023/04/07 04:07:10;;;;;;;32.23;12.80;;;;;;;8.01;100.00;148059.31;5093174;28;20653;-61
2023/04/07 04:09:37;;;;;;;30.03;11.90;;;;;;;8.08;100.00;148075.69;5093099;28;20191;-62
2023/04/07 04:12:04;;;;;;;29.03;10.90;;;;;;;7.86;100.00;148020.19;5092487;28;20230;-61
2023/04/07 04:14:31;;;;;;;14.90;10.57;;;;;;;7.97;100.00;148047.97;5092609;28;20184;-62
2023/04/07 04:16:59;;;;;;;19.80;10.20;;;;;;;8.02;100.00;148061.81;5092941;28;20193;-61
2023/04/07 04:19:26;;;;;;;15.07;10.33;;;;;;;8.04;100.00;148065.59;5092928;28;20551;-61
2023/04/07 04:21:53;;;;;;;11.50;10.40;;;;;;;8.11;100.00;148084.50;5092668;28;20204;-62
2023/04/07 04:24:20;;;;;;;11.07;9.97;;;;;;;7.98;100.00;148050.44;5092775;28;20555;-61
2023/04/07 04:26:47;;;;;;;11.03;9.90;;;;;;;7.96;100.00;148045.44;5092796;28;20179;-62
2023/04/07 04:29:13;;;;;;;31.03;12.37;;;;;;;7.99;100.00;148052.97;5092332;28;20271;-62
2023/04/07 04:31:40;;;;;;;23.53;11.70;;;;;;;7.99;100.00;148052.97;5092546;28;20184;-61
2023/04/07 04:34:08;;;;;;;30.27;11.93;;;;;;;7.93;100.00;148039.13;5092493;28;20184;-61
2023/04/07 04:36:35;;;;;;;13.57;11.30;;;;;;;8.04;100.00;148065.59;5092144;28;20188;-62
2023/04/07 04:39:02;;;;;;;13.03;11.57;;;;;;;8.25;100.00;148119.84;5092634;28;20196;-61
2023/04/07 04:41:29;;;;;;;12.33;11.10;;;;;;;8.20;100.00;148107.22;5091724;28;20563;-61
2023/04/07 04:43:56;;;;;;;12.93;11.80;;;;;;;8.13;100.00;148088.31;5092155;28;20195;-61
2023/04/07 04:46:22;;;;;;;14.40;12.23;;;;;;;8.20;100.00;148105.97;5092350;28;20623;-62
2023/04/07 04:48:50;;;;;;;15.53;11.50;;;;;;;8.21;100.00;148109.75;5092166;28;20196;-62
2023/04/07 04:51:18;;;;;;;16.43;11.20;;;;;;;8.21;100.00;148108.50;5092314;28;20548;-62
2023/04/07 04:53:45;;;;;;;12.20;11.13;;;;;;;8.05;100.00;148069.41;5092037;28;20187;-62
2023/04/07 04:56:12;;;;;;;15.17;11.33;;;;;;;8.37;100.00;148148.91;5091889;28;20195;-62
2023/04/07 04:58:41;;;;;;;17.53;11.90;;;;;;;8.31;100.00;148132.53;5092248;28;20283;-62
2023/04/07 05:01:07;;;;;;;13.07;11.77;;;;;;;8.39;100.00;148153.97;5091824;28;20184;-61
2023/04/07 05:03:34;;;;;;;12.27;11.03;;;;;;;8.36;100.00;148145.16;5091654;28;20204;-62
2023/04/07 05:06:01;;;;;;;14.13;11.03;;;;;;;8.47;100.00;148174.16;5091806;28;20241;-62
2023/04/07 05:08:30;;;;;;;11.63;10.93;;;;;;;8.58;100.00;148201.91;5091876;28;20698;-62
2023/04/07 05:10:57;;;;;;;15.87;14.27;;;;;;;8.48;100.00;148175.44;5091324;28;20330;-63
2023/04/07 05:13:25;;;;;;;12.37;11.40;;;;;;;8.76;100.00;148244.81;5091820;28;20559;-63
2023/04/07 05:15:52;;;;;;;15.97;11.83;;;;;;;8.76;100.00;148244.81;5091681;28;20226;-62
2023/04/07 05:18:18;;;;;;;13.30;11.57;;;;;;;8.69;100.00;148229.72;5091990;28;20195;-63
2023/04/07 05:20:45;;;;;;;11.80;10.57;;;;;;;8.83;100.00;148262.47;5091659;28;20666;-63
2023/04/07 05:23:12;;;;;;;13.57;11.00;;;;;;;8.88;100.00;148275.09;5091513;28;20571;-64
2023/04/07 05:25:40;;;;;;;12.60;11.50;;;;;;;8.83;100.00;148262.47;5091278;28;20173;-63
2023/04/07 05:28:07;;;;;;;17.23;15.07;;;;;;;8.78;100.00;148251.16;5091161;28;20188;-62
2023/04/07 05:30:34;;;;;;;13.07;11.67;;;;;;;9.00;100.00;148306.66;5091471;28;20184;-63
2023/04/07 05:33:04;;;;;;;13.90;11.27;;;;;;;9.08;100.00;148326.88;5091682;28;20207;-63
2023/04/07 05:35:31;;;;;;;12.27;11.27;;;;;;;9.05;100.00;148318.03;5091476;28;20283;-62
2023/04/07 05:37:57;;;;;;;12.77;11.63;;;;;;;9.02;100.00;148310.47;5091792;28;20205;-63
2023/04/07 05:40:26;;;;;;;18.07;12.37;;;;;;;9.02;100.00;148310.47;5091521;28;20184;-65
2023/04/07 05:42:54;;;;;;;13.23;11.70;;;;;;;9.09;100.00;148328.13;5091428;28;20690;-65
2023/04/07 05:45:21;;;;;;;12.63;11.63;;;;;;;9.17;100.00;148348.31;5091500;28;20643;-63
2023/04/07 05:47:49;;;;;;;12.80;11.47;;;;;;;9.26;100.00;148371.06;5091181;28;20191;-63
2023/04/07 05:50:16;;;;;;;15.53;11.87;;;;;;;8.95;100.00;148294.09;5091474;28;20670;-62
2023/04/07 05:52:43;;;;;;;12.83;10.67;;;;;;;8.89;100.00;148277.66;5094037;28;20187;-63
2023/04/07 05:55:10;;;;;;;10.73;10.13;;;;;;;9.08;100.00;148326.88;5095654;28;20206;-63
2023/04/07 05:57:37;;;;;;;11.57;10.60;;;;;;;9.18;100.00;148350.88;5095313;28;20185;-63
2023/04/07 06:00:07;;;;;;;13.63;12.07;;;;;;;9.35;100.00;148393.81;5095328;28;20215;-63
2023/04/07 06:02:34;;;;;;;13.67;12.20;;;;;;;9.29;100.00;148378.66;5094893;28;20208;-63
2023/04/07 06:05:01;;;;;;;19.47;11.50;;;;;;;9.50;100.00;148431.72;5095155;28;20195;-62
2023/04/07 06:07:28;;;;;;;12.27;11.07;;;;;;;9.49;100.00;148429.16;5095266;28;20215;-63
2023/04/07 06:09:55;;;;;;;12.77;10.40;;;;;;;9.63;100.00;148464.50;5094923;28;20188;-63
2023/04/07 06:12:21;;;;;;;12.10;10.83;;;;;;;9.71;100.00;148482.22;5095027;28;20598;-63
2023/04/07 06:14:53;;;;;;;12.73;11.63;;;;;;;9.76;100.00;148494.88;5093498;28;20188;-62
2023/04/07 06:17:24;;;;;;;19.20;11.57;;;;;;;9.99;100.00;148552.94;5094743;28;20246;-64
2023/04/07 06:19:51;;;;;;;12.10;10.83;;;;;;;10.17;100.00;148598.50;5094575;28;20191;-64
2023/04/07 06:22:18;;;;;;;11.43;10.23;;;;;;;10.39;100.00;148654.13;5094595;28;20208;-64
2023/04/07 06:24:45;;;;;;;12.40;11.13;;;;;;;10.45;99.42;148669.25;5094624;28;20195;-63
2023/04/07 06:27:12;;;;;;;11.73;10.67;;;;;;;10.75;94.08;148742.56;5094868;28;20184;-63
2023/04/07 06:29:39;;;;;;;11.97;10.87;;;;;;;10.93;91.10;148788.09;5094420;28;20185;-64
2023/04/07 06:32:07;;;;;;;11.80;10.60;;;;;;;11.14;94.36;148841.19;5094733;28;20623;-63
2023/04/07 06:34:35;;;;;;;13.77;11.37;;;;;;;11.38;90.89;148901.91;5094341;28;20237;-63
2023/04/07 06:37:04;;;;;;;15.17;11.67;;;;;;;11.47;87.10;148923.41;5094412;28;20191;-64
2023/04/07 06:39:31;;;;;;;12.97;11.80;;;;;;;11.33;85.19;148889.25;5094701;28;20647;-64
2023/04/07 06:41:58;;;;;;;11.83;10.97;;;;;;;11.35;83.36;148893.06;5094487;28;20176;-64
2023/04/07 06:44:25;;;;;;;16.13;11.33;;;;;;;11.56;82.78;148946.19;5094090;28;20216;-63
2023/04/07 06:46:52;;;;;;;23.53;12.07;;;;;;;11.55;82.07;148943.63;5087726;28;20567;-63
2023/04/07 06:49:18;;;;;;;23.90;11.57;;;;;;;11.75;85.49;148993.06;5079223;28;20207;-62
2023/04/07 06:51:47;;;;;;;16.73;10.33;;;;;;;11.68;79.32;148975.25;5076450;28;20200;-63
2023/04/07 06:54:14;;;;;;;12.37;11.33;;;;;;;11.84;77.57;149017.06;5091809;28;20207;-63
2023/04/07 06:56:42;;;;;;;14.07;11.43;;;;;;;11.96;75.80;149046.19;5093964;28;20567;-63
2023/04/07 06:59:09;;;;;;;14.00;10.80;;;;;;;12.25;74.60;149118.31;5094213;28;20184;-63
2023/04/07 07:01:37;;;;;;;12.53;11.43;;;;;;;12.30;69.45;149132.25;5087936;28;20203;-63
2023/04/07 07:04:04;;;;;;;11.63;10.40;;;;;;;12.94;65.84;149291.78;5078309;28;20277;-63
2023/04/07 07:06:31;;;;;;;13.97;11.13;;;;;;;13.12;62.90;149337.41;5073789;28;20636;-63
2023/04/07 07:09:02;;;;;;;15.70;11.90;;;;;;;13.54;58.96;149441.28;5083982;28;20199;-63
2023/04/07 07:11:29;;;;;;;14.23;11.53;;;;;;;13.75;60.99;149494.47;5093461;28;20722;-63
2023/04/07 07:13:56;;;;;;;11.43;10.53;;;;;;;13.81;58.64;149509.72;5093624;28;20184;-63
2023/04/07 07:16:25;;;;;;;12.43;11.33;;;;;;;13.74;58.62;149492.00;5094190;28;20218;-64
2023/04/07 07:18:52;;;;;;;12.27;11.03;;;;;;;13.85;59.26;149519.84;5093568;28;20228;-62
2023/04/07 07:21:19;;;;;;;15.73;11.27;;;;;;;14.26;58.16;149621.28;5093814;28;20192;-62
2023/04/07 07:23:46;;;;;;;12.30;10.77;;;;;;;14.39;56.69;149655.50;5093780;28;20277;-63
2023/04/07 07:26:18;;;;;;;11.97;10.83;;;;;;;14.53;53.72;149689.75;5093440;28;20192;-64
2023/04/07 07:28:46;;;;;;;11.17;10.37;;;;;;;14.87;52.75;149776.00;5094082;28;20192;-62
2023/04/07 07:31:14;;;;;;;12.10;10.87;;;;;;;14.99;51.79;149805.16;5090720;28;20224;-63
2023/04/07 07:33:42;;;;;;;10.67;9.97;;;;;;;15.03;50.64;149816.56;5093407;28;20196;-62
2023/04/07 07:36:10;;;;;;;11.77;10.53;;;;;;;14.76;50.56;149748.13;5093374;28;20195;-62
2023/04/07 07:38:37;;;;;;;12.30;11.13;;;;;;;14.82;53.32;149763.31;5093112;28;20188;-62
2023/04/07 07:41:04;;;;;;;15.67;10.30;;;;;;;14.94;51.39;149793.75;5093017;28;20196;-61
2023/04/07 07:43:36;;;;;;;13.03;11.03;;;;;;;14.43;50.50;149664.38;5092302;28;20216;-62
2023/04/07 07:46:02;;;;;;;20.57;11.90;;;;;;;14.43;51.21;149664.38;5092982;28;20204;-63
2023/04/07 07:48:29;;;;;;;13.43;11.70;;;;;;;13.77;51.34;149498.31;5093201;28;20188;-63
2023/04/07 07:50:56;;;;;;;12.93;11.33;;;;;;;14.09;53.60;149579.41;5092814;28;20558;-62
2023/04/07 07:53:23;;;;;;;14.07;10.40;;;;;;;14.44;52.56;149668.19;5092298;28;20184;-61
2023/04/07 07:55:50;;;;;;;12.43;10.87;;;;;;;14.36;51.75;149647.91;5092897;28;20195;-63
2023/04/07 07:58:17;;;;;;;17.80;11.20;;;;;;;14.29;51.69;149630.16;5092686;28;20563;-62
2023/04/07 08:00:45;;;;;;;11.40;10.23;;;;;;;13.88;51.85;149527.44;5090038;28;20190;-61
2023/04/07 08:03:12;;;;;;;10.57;9.93;;;;;;;14.01;52.45;149560.41;5092419;28;20208;-62
2023/04/07 08:05:41;;;;;;;16.80;10.90;;;;;;;14.05;52.31;149569.25;5092661;28;20188;-63
2023/04/07 08:08:08;;;;;;;12.10;10.80;;;;;;;14.02;50.45;149562.94;5092507;28;20535;-62
2023/04/07 08:10:35;;;;;;;10.23;9.73;;;;;;;13.92;52.07;149537.56;5090849;28;20685;-61
2023/04/07 08:13:05;;;;;;;11.60;10.50;;;;;;;14.21;50.51;149608.59;5091935;28;20180;-61
2023/04/07 08:15:35;;;;;;;11.13;10.27;;;;;;;14.18;52.16;149602.22;5091318;28;20265;-62
2023/04/07 08:18:05;;;;;;;14.40;10.33;;;;;;;14.32;53.20;149636.47;5092088;28;20665;-62
2023/04/07 08:20:32;;;;;;;10.27;9.67;;;;;;;14.41;51.30;149659.34;5092179;28;20202;-63
2023/04/07 08:23:02;;;;;;;12.67;11.37;;;;;;;14.58;49.65;149702.44;5091950;28;20196;-62
2023/04/07 08:25:29;;;;;;;14.83;11.03;;;;;;;14.76;50.36;149748.13;5092066;28;20192;-61
2023/04/07 08:27:56;;;;;;;11.93;10.77;;;;;;;14.75;50.87;149745.56;5092173;28;20185;-61
2023/04/07 08:30:23;;;;;;;13.07;11.00;;;;;;;14.39;51.00;149655.50;5089268;28;20203;-61
2023/04/07 08:32:50;;;;;;;12.80;10.40;;;;;;;14.41;51.14;149660.59;5092976;28;20188;-62
2023/04/07 08:35:18;;;;;;;11.87;11.03;;;;;;;14.40;50.53;149656.78;5091540;28;20203;-62
2023/04/07 08:37:46;;;;;;;11.43;10.17;;;;;;;14.47;52.10;149674.56;5092643;28;20531;-62
2023/04/07 08:40:13;;;;;;;10.63;10.13;;;;;;;14.44;49.70;149668.19;5092489;28;20191;-63
2023/04/07 08:42:43;;;;;;;11.50;10.40;;;;;;;14.30;51.32;149631.41;5092777;28;20196;-62
2023/04/07 08:45:10;;;;;;;11.63;10.80;;;;;;;14.37;49.97;149649.19;5086479;28;20197;-61
2023/04/07 08:47:37;;;;;;;11.63;10.53;;;;;;;14.10;53.35;149581.94;5076352;28;20203;-62
2023/04/07 08:50:07;;;;;;;11.17;10.50;;;;;;;13.81;51.71;149509.72;5092235;28;20192;-61
2023/04/07 08:52:41;;;;;;;11.30;10.20;;;;;;;13.67;53.29;149474.22;5076093;28;20204;-62
2023/04/07 08:55:09;;;;;;;11.83;10.67;;;;;;;13.80;53.05;149507.16;5071665;28;20184;-61
2023/04/07 08:57:37;;;;;;;13.67;11.57;;;;;;;13.75;53.34;149493.25;5071983;28;20212;-62
2023/04/07 09:00:05;;;;;;;12.00;10.60;;;;;;;13.69;54.84;149479.31;5071412;28;20193;-62
2023/04/07 09:02:33;;;;;;;14.07;10.70;;;;;;;13.65;53.14;149470.44;5071688;28;20264;-64
2023/04/07 09:05:01;;;;;;;17.23;11.20;;;;;;;13.59;53.33;149453.94;5072003;28;20660;-63
2023/04/07 09:07:28;;;;;;;15.27;10.80;;;;;;;13.68;55.37;149476.75;5071737;28;20563;-62
2023/04/07 09:09:56;;;;;;;11.60;10.40;;;;;;;13.61;54.92;149459.03;5071821;28;20192;-62
2023/04/07 09:12:23;;;;;;;11.77;10.53;;;;;;;13.66;55.35;149472.94;5071783;28;20232;-62
2023/04/07 09:14:51;;;;;;;17.40;10.50;;;;;;;13.70;56.10;149481.84;5072035;28;20177;-61
2023/04/07 09:17:17;;;;;;;15.47;10.83;;;;;;;13.67;56.75;149475.50;5071982;28;20619;-62
2023/04/07 09:19:44;;;;;;;19.53;10.90;;;;;;;13.74;57.05;149492.00;5072014;28;20196;-62
2023/04/07 09:22:18;;;;;;;13.83;10.57;;;;;;;13.77;56.14;149499.56;5080079;28;20578;-62
2023/04/07 09:24:47;;;;;;;11.03;9.60;;;;;;;13.91;56.27;149535.06;5088003;28;20263;-62
2023/04/07 09:27:19;;;;;;;10.50;9.80;;;;;;;14.30;55.67;149631.41;5096291;28;20690;-62
2023/04/07 09:29:52;;;;;;;11.07;10.17;;;;;;;14.28;56.29;149626.31;5098578;28;20191;-62
2023/04/07 09:32:40;;;;;;;14.57;10.70;;;;;;;14.61;54.59;149711.31;5099159;28;20618;-61
2023/04/07 09:35:09;;;;;;;10.53;9.93;;;;;;;14.76;51.73;149748.13;5098535;28;20237;-62
2023/04/07 09:37:38;;;;;;;10.77;10.10;;;;;;;15.22;52.36;149862.25;5098625;28;20183;-61
2023/04/07 09:40:28;;;;;;;10.80;9.97;;;;;;;15.36;50.49;149899.03;5097084;28;20605;-61
2023/04/07 09:43:23;;;;;;;10.67;9.70;;;;;;;15.38;51.94;149902.84;5087005;28;20231;-62
2023/04/07 09:45:51;;;;;;;10.03;9.47;;;;;;;15.81;51.86;150012.03;5078098;28;20280;-61
2023/04/07 09:48:26;;;;;;;10.13;9.57;;;;;;;16.03;51.80;150065.34;5097545;28;20650;-63
2023/04/07 09:51:11;;;;;;;10.53;9.53;;;;;;;16.11;51.29;150085.66;5087998;28;20196;-62
2023/04/07 09:53:46;;;;;;;10.43;9.37;;;;;;;16.15;50.90;150095.81;5077514;28;20613;-61
2023/04/07 09:56:15;;;;;;;18.43;9.87;;;;;;;15.90;51.16;150033.63;5077783;28;20551;-61
2023/04/07 09:58:45;;;;;;;16.00;10.37;;;;;;;15.52;51.98;149939.72;5083262;28;20655;-61
2023/04/07 10:01:13;;;;;;;18.70;11.10;;;;;;;15.40;55.17;149909.16;5083594;28;20288;-62
2023/04/07 10:03:40;;;;;;;18.87;10.57;;;;;;;15.30;52.81;149882.56;5088005;28;20215;-62
2023/04/07 10:06:07;;;;;;;18.43;10.63;;;;;;;15.11;51.63;149834.38;5093224;28;20256;-61
2023/04/07 10:08:39;;;;;;;11.07;10.27;;;;;;;15.00;54.34;149808.97;5097853;28;20184;-62
2023/04/07 10:11:06;;;;;;;11.97;9.77;;;;;;;14.75;57.34;149745.56;5097535;28;20647;-61
2023/04/07 10:13:35;;;;;;;10.10;9.43;;;;;;;14.59;57.23;149705.00;5098415;28;20180;-62
2023/04/07 10:16:06;;;;;;;13.57;9.73;;;;;;;14.78;58.27;149751.88;5097928;28;20180;-62
2023/04/07 10:18:36;;;;;;;11.20;9.50;;;;;;;14.83;56.17;149764.56;5093495;28;20200;-61
2023/04/07 10:21:06;;;;;;;10.83;9.37;;;;;;;14.96;56.09;149798.84;5098195;28;20625;-62
2023/04/07 10:23:47;;;;;;;10.30;9.27;;;;;;;14.95;52.32;149796.28;5097371;28;20210;-62
2023/04/07 10:26:18;;;;;;;14.30;10.50;;;;;;;14.66;54.74;149722.72;5097982;28;20192;-63
2023/04/07 10:28:49;;;;;;;12.70;9.40;;;;;;;14.99;57.78;149806.44;5097989;28;20640;-64
2023/04/07 10:31:18;;;;;;;23.00;9.90;;;;;;;15.11;58.86;149834.38;5097568;28;20180;-62
2023/04/07 10:33:51;;;;;;;10.00;9.10;;;;;;;15.08;57.13;149829.28;5097816;28;20237;-62
2023/04/07 10:36:19;;;;;;;13.00;9.23;;;;;;;14.77;56.44;149750.63;5097907;28;20274;-62
2023/04/07 10:39:19;;;;;;;9.80;8.87;;;;;;;14.99;56.89;149805.16;5094773;28;20188;-62
2023/04/07 10:41:46;;;;;;;12.17;8.83;;;;;;;14.98;54.84;149802.59;5051724;28;20194;-62
2023/04/07 10:44:51;;;;;;;10.33;9.37;;;;;;;15.24;55.80;149868.59;5035304;28;20221;-62
2023/04/07 10:47:19;;;;;;;10.50;8.50;;;;;;;15.42;54.37;149914.28;5051877;28;20247;-62
2023/04/07 10:50:15;;;;;;;10.47;9.67;;;;;;;15.11;55.58;149834.38;5051290;28;20259;-62
2023/04/07 10:52:42;;;;;;;9.93;8.97;;;;;;;14.96;57.16;149797.56;5051550;28;20205;-62
2023/04/07 10:55:32;;;;;;;11.17;9.63;;;;;;;15.00;58.12;149808.97;5051295;28;20668;-62
2023/04/07 10:58:16;;;;;;;11.87;10.73;;;;;;;15.00;53.58;149808.97;5051227;28;20198;-63
2023/04/07 11:00:43;;;;;;;10.73;9.87;;;;;;;14.99;55.41;149806.44;5050474;28;20193;-62
2023/04/07 11:03:13;;;;;;;11.07;10.10;;;;;;;15.01;56.15;149811.53;5051644;28;20197;-64
2023/04/07 11:05:40;;;;;;;11.13;9.97;;;;;;;14.90;57.58;149783.59;5047398;28;20317;-63
2023/04/07 11:08:08;;;;;;;12.63;10.30;;;;;;;14.95;59.05;149796.28;5044178;28;20233;-62
2023/04/07 11:10:35;;;;;;;11.63;10.40;;;;;;;15.00;60.12;149807.69;5047351;28;20212;-62
2023/04/07 11:13:05;;;;;;;15.43;11.17;;;;;;;14.87;58.39;149776.00;5078477;28;20615;-61
2023/04/07 11:15:32;;;;;;;12.60;11.07;;;;;;;15.03;59.92;149816.56;5093670;28;20184;-62
2023/04/07 11:18:15;;;;;;;11.77;11.17;;;;;;;15.04;57.48;149817.84;5093936;28;20204;-61
2023/04/07 11:20:50;;;;;;;12.20;11.00;;;;;;;15.19;55.21;149854.66;5093294;28;20246;-64
2023/04/07 11:23:18;;;;;;;12.03;10.93;;;;;;;15.20;55.14;149857.16;5093601;28;20184;-62